Terminal Aerodrome Forecast
Issued by NWS

Home | Current Version | Previous Version | Text Only | Print | Product List | Glossary On
Versions: 1 2 3 4 5 6 7 8 9 10 11 12 13 14 15 16 17
000
FTUS41 KBOX 292327
TAFACK
TAF
KACK 292327Z 3000/3024 08010KT P6SM SKC
     FM300600 08009KT P6SM BKN140
     FM301300 05013KT P6SM FEW200
     FM302000 09009KT P6SM SKC=

USA.gov is the U.S. government's official web portal to all federal, state and local government web resources and services.